sensor_id;sensor_type;location;lat;lon;timestamp;P1;durP1;ratioP1;P2;durP2;ratioP2
20997;SDS011;10657;51.276;6.390;2024-01-15T00:01:01;33.92;;;19.08;;
20997;SDS011;10657;51.276;6.390;2024-01-15T00:03:28;29.70;;;16.65;;
20997;SDS011;10657;51.276;6.390;2024-01-15T00:05:55;31.45;;;18.73;;
20997;SDS011;10657;51.276;6.390;2024-01-15T00:08:22;29.90;;;20.08;;
20997;SDS011;10657;51.276;6.390;2024-01-15T00:10:49;27.27;;;16.25;;
20997;SDS011;10657;51.276;6.390;2024-01-15T00:13:15;29.45;;;17.92;;
20997;SDS011;10657;51.276;6.390;2024-01-15T00:15:42;29.58;;;21.17;;
20997;SDS011;10657;51.276;6.390;2024-01-15T00:18:09;31.05;;;20.08;;
20997;SDS011;10657;51.276;6.390;2024-01-15T00:20:36;30.50;;;18.88;;
20997;SDS011;10657;51.276;6.390;2024-01-15T00:23:03;30.50;;;19.85;;
20997;SDS011;10657;51.276;6.390;2024-01-15T00:25:30;28.85;;;16.80;;
20997;SDS011;10657;51.276;6.390;2024-01-15T00:27:57;29.73;;;17.70;;
20997;SDS011;10657;51.276;6.390;2024-01-15T00:30:23;32.08;;;21.20;;
20997;SDS011;10657;51.276;6.390;2024-01-15T00:32:53;29.17;;;16.88;;
20997;SDS011;10657;51.276;6.390;2024-01-15T00:35:20;29.25;;;19.00;;
20997;SDS011;10657;51.276;6.390;2024-01-15T00:37:47;27.42;;;17.20;;
20997;SDS011;10657;51.276;6.390;2024-01-15T00:40:13;29.35;;;18.40;;
20997;SDS011;10657;51.276;6.390;2024-01-15T00:42:40;25.90;;;15.23;;
20997;SDS011;10657;51.276;6.390;2024-01-15T00:45:07;29.88;;;20.17;;
20997;SDS011;10657;51.276;6.390;2024-01-15T00:47:34;31.45;;;18.70;;
20997;SDS011;10657;51.276;6.390;2024-01-15T00:50:01;28.55;;;16.50;;
20997;SDS011;10657;51.276;6.390;2024-01-15T00:52:28;31.45;;;17.73;;
20997;SDS011;10657;51.276;6.390;2024-01-15T00:54:55;29.17;;;18.30;;
20997;SDS011;10657;51.276;6.390;2024-01-15T00:57:21;30.17;;;20.67;;
20997;SDS011;10657;51.276;6.390;2024-01-15T00:59:48;28.63;;;18.92;;
20997;SDS011;10657;51.276;6.390;2024-01-15T01:02:15;29.77;;;19.30;;
20997;SDS011;10657;51.276;6.390;2024-01-15T01:04:41;27.98;;;16.77;;
20997;SDS011;10657;51.276;6.390;2024-01-15T01:07:08;28.55;;;19.52;;
20997;SDS011;10657;51.276;6.390;2024-01-15T01:09:35;27.45;;;16.65;;
20997;SDS011;10657;51.276;6.390;2024-01-15T01:12:02;28.88;;;17.67;;
20997;SDS011;10657;51.276;6.390;2024-01-15T01:14:29;27.08;;;15.90;;
20997;SDS011;10657;51.276;6.390;2024-01-15T01:16:55;28.45;;;18.77;;
20997;SDS011;10657;51.276;6.390;2024-01-15T01:19:22;26.83;;;17.60;;
20997;SDS011;10657;51.276;6.390;2024-01-15T01:21:49;28.73;;;17.10;;
20997;SDS011;10657;51.276;6.390;2024-01-15T01:24:17;28.58;;;15.63;;
20997;SDS011;10657;51.276;6.390;2024-01-15T01:26:44;26.65;;;16.52;;
20997;SDS011;10657;51.276;6.390;2024-01-15T01:29:12;28.25;;;16.17;;
20997;SDS011;10657;51.276;6.390;2024-01-15T01:31:43;27.17;;;15.07;;
20997;SDS011;10657;51.276;6.390;2024-01-15T01:34:13;24.15;;;14.38;;
20997;SDS011;10657;51.276;6.390;2024-01-15T01:36:41;24.45;;;16.30;;
20997;SDS011;10657;51.276;6.390;2024-01-15T01:39:08;24.75;;;15.23;;
20997;SDS011;10657;51.276;6.390;2024-01-15T01:41:35;25.27;;;14.77;;
20997;SDS011;10657;51.276;6.390;2024-01-15T01:44:02;23.08;;;13.38;;
20997;SDS011;10657;51.276;6.390;2024-01-15T01:46:29;25.60;;;14.35;;
20997;SDS011;10657;51.276;6.390;2024-01-15T01:48:56;20.75;;;12.20;;
20997;SDS011;10657;51.276;6.390;2024-01-15T01:51:23;21.65;;;13.05;;
20997;SDS011;10657;51.276;6.390;2024-01-15T01:53:51;21.42;;;13.57;;
20997;SDS011;10657;51.276;6.390;2024-01-15T01:56:18;23.05;;;13.40;;
20997;SDS011;10657;51.276;6.390;2024-01-15T01:58:45;19.02;;;12.65;;
20997;SDS011;10657;51.276;6.390;2024-01-15T02:01:13;20.70;;;11.85;;
20997;SDS011;10657;51.276;6.390;2024-01-15T02:03:40;22.33;;;12.55;;
20997;SDS011;10657;51.276;6.390;2024-01-15T02:06:07;21.10;;;12.75;;
20997;SDS011;10657;51.276;6.390;2024-01-15T02:08:34;19.17;;;10.48;;
20997;SDS011;10657;51.276;6.390;2024-01-15T02:11:02;20.10;;;10.93;;
20997;SDS011;10657;51.276;6.390;2024-01-15T02:13:29;19.73;;;12.43;;
20997;SDS011;10657;51.276;6.390;2024-01-15T02:15:56;17.35;;;9.57;;
20997;SDS011;10657;51.276;6.390;2024-01-15T02:18:23;19.52;;;11.55;;
20997;SDS011;10657;51.276;6.390;2024-01-15T02:20:50;20.50;;;9.93;;
20997;SDS011;10657;51.276;6.390;2024-01-15T02:23:16;18.38;;;9.93;;
20997;SDS011;10657;51.276;6.390;2024-01-15T02:25:46;18.45;;;11.23;;
20997;SDS011;10657;51.276;6.390;2024-01-15T02:28:16;20.73;;;11.63;;
20997;SDS011;10657;51.276;6.390;2024-01-15T02:30:44;21.63;;;11.25;;
20997;SDS011;10657;51.276;6.390;2024-01-15T02:33:12;19.90;;;10.93;;
20997;SDS011;10657;51.276;6.390;2024-01-15T02:35:39;18.45;;;9.73;;
20997;SDS011;10657;51.276;6.390;2024-01-15T02:38:06;19.90;;;11.73;;
20997;SDS011;10657;51.276;6.390;2024-01-15T02:40:37;17.50;;;10.40;;
20997;SDS011;10657;51.276;6.390;2024-01-15T02:43:04;18.92;;;10.50;;
20997;SDS011;10657;51.276;6.390;2024-01-15T02:45:31;19.92;;;11.23;;
20997;SDS011;10657;51.276;6.390;2024-01-15T02:47:58;19.20;;;11.25;;
20997;SDS011;10657;51.276;6.390;2024-01-15T02:50:25;18.17;;;11.18;;
20997;SDS011;10657;51.276;6.390;2024-01-15T02:52:51;17.13;;;9.82;;
20997;SDS011;10657;51.276;6.390;2024-01-15T02:55:18;17.58;;;11.10;;
20997;SDS011;10657;51.276;6.390;2024-01-15T02:57:45;17.75;;;10.40;;
20997;SDS011;10657;51.276;6.390;2024-01-15T03:00:12;16.08;;;10.20;;
20997;SDS011;10657;51.276;6.390;2024-01-15T03:02:39;16.10;;;10.20;;
20997;SDS011;10657;51.276;6.390;2024-01-15T03:05:11;13.60;;;7.90;;
20997;SDS011;10657;51.276;6.390;2024-01-15T03:07:38;15.95;;;9.90;;
20997;SDS011;10657;51.276;6.390;2024-01-15T03:10:05;19.17;;;11.30;;
20997;SDS011;10657;51.276;6.390;2024-01-15T03:12:32;15.55;;;9.40;;
20997;SDS011;10657;51.276;6.390;2024-01-15T03:14:59;16.17;;;10.32;;
20997;SDS011;10657;51.276;6.390;2024-01-15T03:17:26;16.40;;;9.38;;
20997;SDS011;10657;51.276;6.390;2024-01-15T03:19:53;15.63;;;9.95;;
20997;SDS011;10657;51.276;6.390;2024-01-15T03:22:23;14.65;;;9.45;;
20997;SDS011;10657;51.276;6.390;2024-01-15T03:24:49;15.10;;;8.35;;
20997;SDS011;10657;51.276;6.390;2024-01-15T03:27:16;18.80;;;10.05;;
20997;SDS011;10657;51.276;6.390;2024-01-15T03:29:46;18.77;;;10.38;;
20997;SDS011;10657;51.276;6.390;2024-01-15T03:32:13;17.45;;;10.15;;
20997;SDS011;10657;51.276;6.390;2024-01-15T03:34:39;14.57;;;9.85;;
20997;SDS011;10657;51.276;6.390;2024-01-15T03:37:06;15.45;;;9.98;;
20997;SDS011;10657;51.276;6.390;2024-01-15T03:39:33;15.68;;;9.43;;
20997;SDS011;10657;51.276;6.390;2024-01-15T03:42:00;17.48;;;8.82;;
20997;SDS011;10657;51.276;6.390;2024-01-15T03:44:26;14.23;;;8.48;;
20997;SDS011;10657;51.276;6.390;2024-01-15T03:46:53;16.02;;;8.75;;
20997;SDS011;10657;51.276;6.390;2024-01-15T03:49:20;16.42;;;8.85;;
20997;SDS011;10657;51.276;6.390;2024-01-15T03:51:47;17.35;;;9.05;;
20997;SDS011;10657;51.276;6.390;2024-01-15T03:54:14;15.73;;;9.15;;
20997;SDS011;10657;51.276;6.390;2024-01-15T03:56:44;13.43;;;8.70;;
20997;SDS011;10657;51.276;6.390;2024-01-15T03:59:10;12.95;;;7.85;;
20997;SDS011;10657;51.276;6.390;2024-01-15T04:01:37;13.88;;;8.07;;
20997;SDS011;10657;51.276;6.390;2024-01-15T04:04:04;13.73;;;7.18;;
20997;SDS011;10657;51.276;6.390;2024-01-15T04:06:30;12.80;;;7.45;;
20997;SDS011;10657;51.276;6.390;2024-01-15T04:08:59;14.80;;;7.95;;
20997;SDS011;10657;51.276;6.390;2024-01-15T04:11:26;13.65;;;7.75;;
20997;SDS011;10657;51.276;6.390;2024-01-15T04:13:52;13.60;;;7.55;;
20997;SDS011;10657;51.276;6.390;2024-01-15T04:16:19;14.13;;;7.45;;
20997;SDS011;10657;51.276;6.390;2024-01-15T04:18:46;14.65;;;8.13;;
20997;SDS011;10657;51.276;6.390;2024-01-15T04:21:13;16.02;;;8.00;;
20997;SDS011;10657;51.276;6.390;2024-01-15T04:23:39;14.82;;;8.23;;
20997;SDS011;10657;51.276;6.390;2024-01-15T04:26:06;15.63;;;8.27;;
20997;SDS011;10657;51.276;6.390;2024-01-15T04:28:33;15.63;;;7.82;;
20997;SDS011;10657;51.276;6.390;2024-01-15T04:30:59;15.48;;;7.95;;
20997;SDS011;10657;51.276;6.390;2024-01-15T04:33:26;13.68;;;7.80;;
20997;SDS011;10657;51.276;6.390;2024-01-15T04:35:53;14.07;;;7.93;;
20997;SDS011;10657;51.276;6.390;2024-01-15T04:38:20;12.23;;;7.65;;
20997;SDS011;10657;51.276;6.390;2024-01-15T04:40:46;15.13;;;7.95;;
20997;SDS011;10657;51.276;6.390;2024-01-15T04:43:13;14.52;;;7.40;;
20997;SDS011;10657;51.276;6.390;2024-01-15T04:45:40;13.30;;;7.05;;
20997;SDS011;10657;51.276;6.390;2024-01-15T04:48:06;12.18;;;7.82;;
20997;SDS011;10657;51.276;6.390;2024-01-15T04:50:33;12.77;;;6.43;;
20997;SDS011;10657;51.276;6.390;2024-01-15T04:53:00;12.60;;;6.68;;
20997;SDS011;10657;51.276;6.390;2024-01-15T04:55:27;12.57;;;6.93;;
20997;SDS011;10657;51.276;6.390;2024-01-15T04:57:55;13.30;;;6.55;;
20997;SDS011;10657;51.276;6.390;2024-01-15T05:00:22;14.50;;;7.45;;
20997;SDS011;10657;51.276;6.390;2024-01-15T05:02:49;12.75;;;6.97;;
20997;SDS011;10657;51.276;6.390;2024-01-15T05:05:16;11.68;;;6.38;;
20997;SDS011;10657;51.276;6.390;2024-01-15T05:07:43;13.82;;;6.82;;
20997;SDS011;10657;51.276;6.390;2024-01-15T05:10:09;10.07;;;5.68;;
20997;SDS011;10657;51.276;6.390;2024-01-15T05:12:38;12.27;;;6.18;;
20997;SDS011;10657;51.276;6.390;2024-01-15T05:15:04;13.00;;;5.82;;
20997;SDS011;10657;51.276;6.390;2024-01-15T05:17:31;10.77;;;6.03;;
20997;SDS011;10657;51.276;6.390;2024-01-15T05:19:58;13.00;;;6.22;;
20997;SDS011;10657;51.276;6.390;2024-01-15T05:22:26;10.00;;;5.63;;
20997;SDS011;10657;51.276;6.390;2024-01-15T05:24:52;11.60;;;5.32;;
20997;SDS011;10657;51.276;6.390;2024-01-15T05:27:19;11.50;;;5.90;;
20997;SDS011;10657;51.276;6.390;2024-01-15T05:29:46;12.10;;;5.65;;
20997;SDS011;10657;51.276;6.390;2024-01-15T05:32:13;10.93;;;5.47;;
20997;SDS011;10657;51.276;6.390;2024-01-15T05:34:39;10.77;;;5.32;;
20997;SDS011;10657;51.276;6.390;2024-01-15T05:37:06;12.68;;;5.18;;
20997;SDS011;10657;51.276;6.390;2024-01-15T05:39:33;11.18;;;4.63;;
20997;SDS011;10657;51.276;6.390;2024-01-15T05:42:00;11.00;;;4.63;;
20997;SDS011;10657;51.276;6.390;2024-01-15T05:44:27;10.32;;;5.10;;
20997;SDS011;10657;51.276;6.390;2024-01-15T05:46:53;10.50;;;4.97;;
20997;SDS011;10657;51.276;6.390;2024-01-15T05:49:20;10.50;;;4.40;;
20997;SDS011;10657;51.276;6.390;2024-01-15T05:51:47;10.02;;;4.70;;
20997;SDS011;10657;51.276;6.390;2024-01-15T05:54:14;9.35;;;4.88;;
20997;SDS011;10657;51.276;6.390;2024-01-15T05:56:41;10.50;;;4.65;;
20997;SDS011;10657;51.276;6.390;2024-01-15T05:59:08;8.48;;;4.40;;
20997;SDS011;10657;51.276;6.390;2024-01-15T06:01:43;9.73;;;4.45;;
20997;SDS011;10657;51.276;6.390;2024-01-15T06:04:10;9.65;;;3.95;;
20997;SDS011;10657;51.276;6.390;2024-01-15T06:06:36;7.45;;;3.42;;
20997;SDS011;10657;51.276;6.390;2024-01-15T06:09:03;7.55;;;3.20;;
20997;SDS011;10657;51.276;6.390;2024-01-15T06:11:33;8.27;;;3.47;;
20997;SDS011;10657;51.276;6.390;2024-01-15T06:14:00;7.80;;;3.28;;
20997;SDS011;10657;51.276;6.390;2024-01-15T06:16:30;8.48;;;3.20;;
20997;SDS011;10657;51.276;6.390;2024-01-15T06:18:57;6.90;;;3.35;;
20997;SDS011;10657;51.276;6.390;2024-01-15T06:21:24;8.73;;;3.30;;
20997;SDS011;10657;51.276;6.390;2024-01-15T06:23:51;9.25;;;3.72;;
20997;SDS011;10657;51.276;6.390;2024-01-15T06:26:22;8.40;;;4.55;;
20997;SDS011;10657;51.276;6.390;2024-01-15T06:28:49;10.18;;;4.97;;
20997;SDS011;10657;51.276;6.390;2024-01-15T06:31:16;8.70;;;5.10;;
20997;SDS011;10657;51.276;6.390;2024-01-15T06:33:43;10.80;;;5.60;;
20997;SDS011;10657;51.276;6.390;2024-01-15T06:36:11;10.15;;;5.75;;
20997;SDS011;10657;51.276;6.390;2024-01-15T06:38:37;11.70;;;5.72;;
20997;SDS011;10657;51.276;6.390;2024-01-15T06:41:04;11.38;;;5.60;;
20997;SDS011;10657;51.276;6.390;2024-01-15T06:43:31;11.75;;;5.95;;
20997;SDS011;10657;51.276;6.390;2024-01-15T06:45:58;13.38;;;7.18;;
20997;SDS011;10657;51.276;6.390;2024-01-15T06:48:27;15.15;;;6.70;;
20997;SDS011;10657;51.276;6.390;2024-01-15T06:50:53;12.68;;;7.00;;
20997;SDS011;10657;51.276;6.390;2024-01-15T06:53:20;15.00;;;7.35;;
20997;SDS011;10657;51.276;6.390;2024-01-15T06:55:47;12.10;;;6.50;;
20997;SDS011;10657;51.276;6.390;2024-01-15T06:58:15;14.30;;;7.53;;
20997;SDS011;10657;51.276;6.390;2024-01-15T07:00:41;17.48;;;8.27;;
20997;SDS011;10657;51.276;6.390;2024-01-15T07:03:08;15.07;;;6.90;;
20997;SDS011;10657;51.276;6.390;2024-01-15T07:05:35;12.15;;;6.22;;
20997;SDS011;10657;51.276;6.390;2024-01-15T07:08:03;12.15;;;7.55;;
20997;SDS011;10657;51.276;6.390;2024-01-15T07:10:30;11.50;;;6.63;;
20997;SDS011;10657;51.276;6.390;2024-01-15T07:13:01;11.18;;;6.40;;
20997;SDS011;10657;51.276;6.390;2024-01-15T07:15:28;10.48;;;5.78;;
20997;SDS011;10657;51.276;6.390;2024-01-15T07:17:55;10.43;;;5.30;;
20997;SDS011;10657;51.276;6.390;2024-01-15T07:20:25;10.70;;;5.43;;
20997;SDS011;10657;51.276;6.390;2024-01-15T07:22:53;10.55;;;5.30;;
20997;SDS011;10657;51.276;6.390;2024-01-15T07:25:20;10.43;;;5.13;;
20997;SDS011;10657;51.276;6.390;2024-01-15T07:27:50;13.77;;;5.90;;
20997;SDS011;10657;51.276;6.390;2024-01-15T07:30:20;9.88;;;5.55;;
20997;SDS011;10657;51.276;6.390;2024-01-15T07:32:48;11.43;;;5.35;;
20997;SDS011;10657;51.276;6.390;2024-01-15T07:35:15;11.70;;;5.25;;
20997;SDS011;10657;51.276;6.390;2024-01-15T07:37:43;10.48;;;5.85;;
20997;SDS011;10657;51.276;6.390;2024-01-15T07:40:09;9.68;;;5.35;;
20997;SDS011;10657;51.276;6.390;2024-01-15T07:42:40;9.95;;;5.70;;
20997;SDS011;10657;51.276;6.390;2024-01-15T07:45:16;11.48;;;5.60;;
20997;SDS011;10657;51.276;6.390;2024-01-15T07:47:43;9.30;;;5.82;;
20997;SDS011;10657;51.276;6.390;2024-01-15T07:50:10;9.90;;;5.68;;
20997;SDS011;10657;51.276;6.390;2024-01-15T07:52:39;9.63;;;5.68;;
20997;SDS011;10657;51.276;6.390;2024-01-15T07:55:08;11.45;;;6.30;;
20997;SDS011;10657;51.276;6.390;2024-01-15T07:57:34;8.90;;;5.15;;
20997;SDS011;10657;51.276;6.390;2024-01-15T08:00:03;9.05;;;5.25;;
20997;SDS011;10657;51.276;6.390;2024-01-15T08:02:31;9.32;;;5.70;;
20997;SDS011;10657;51.276;6.390;2024-01-15T08:05:02;9.45;;;5.53;;
20997;SDS011;10657;51.276;6.390;2024-01-15T08:07:29;8.32;;;4.78;;
20997;SDS011;10657;51.276;6.390;2024-01-15T08:09:58;9.82;;;5.63;;
20997;SDS011;10657;51.276;6.390;2024-01-15T08:12:25;8.75;;;5.53;;
20997;SDS011;10657;51.276;6.390;2024-01-15T08:14:52;9.52;;;5.60;;
20997;SDS011;10657;51.276;6.390;2024-01-15T08:17:21;10.73;;;6.15;;
20997;SDS011;10657;51.276;6.390;2024-01-15T08:19:48;9.43;;;6.10;;
20997;SDS011;10657;51.276;6.390;2024-01-15T08:22:18;10.13;;;6.05;;
20997;SDS011;10657;51.276;6.390;2024-01-15T08:24:47;9.88;;;6.13;;
20997;SDS011;10657;51.276;6.390;2024-01-15T08:27:14;9.32;;;5.32;;
20997;SDS011;10657;51.276;6.390;2024-01-15T08:29:49;8.93;;;4.93;;
20997;SDS011;10657;51.276;6.390;2024-01-15T08:32:16;9.80;;;5.93;;
20997;SDS011;10657;51.276;6.390;2024-01-15T08:34:43;8.85;;;5.47;;
20997;SDS011;10657;51.276;6.390;2024-01-15T08:37:10;8.70;;;5.50;;
20997;SDS011;10657;51.276;6.390;2024-01-15T08:39:37;11.20;;;6.95;;
20997;SDS011;10657;51.276;6.390;2024-01-15T08:42:10;8.35;;;5.50;;
20997;SDS011;10657;51.276;6.390;2024-01-15T08:44:37;9.05;;;5.22;;
20997;SDS011;10657;51.276;6.390;2024-01-15T08:47:09;8.75;;;5.63;;
20997;SDS011;10657;51.276;6.390;2024-01-15T08:49:36;10.98;;;5.78;;
20997;SDS011;10657;51.276;6.390;2024-01-15T08:52:04;8.30;;;4.90;;
20997;SDS011;10657;51.276;6.390;2024-01-15T08:54:30;8.07;;;4.97;;
20997;SDS011;10657;51.276;6.390;2024-01-15T08:56:57;10.77;;;5.65;;
20997;SDS011;10657;51.276;6.390;2024-01-15T08:59:33;9.73;;;5.90;;
20997;SDS011;10657;51.276;6.390;2024-01-15T09:02:03;8.48;;;4.63;;
20997;SDS011;10657;51.276;6.390;2024-01-15T09:04:30;8.35;;;4.82;;
20997;SDS011;10657;51.276;6.390;2024-01-15T09:06:57;8.60;;;4.50;;
20997;SDS011;10657;51.276;6.390;2024-01-15T09:09:26;7.20;;;4.15;;
20997;SDS011;10657;51.276;6.390;2024-01-15T09:11:53;7.00;;;3.95;;
20997;SDS011;10657;51.276;6.390;2024-01-15T09:14:20;7.97;;;4.40;;
20997;SDS011;10657;51.276;6.390;2024-01-15T09:17:02;8.15;;;4.63;;
20997;SDS011;10657;51.276;6.390;2024-01-15T09:19:30;9.95;;;4.00;;
20997;SDS011;10657;51.276;6.390;2024-01-15T09:21:56;6.82;;;4.25;;
20997;SDS011;10657;51.276;6.390;2024-01-15T09:24:23;7.35;;;4.20;;
20997;SDS011;10657;51.276;6.390;2024-01-15T09:26:54;8.13;;;4.32;;
20997;SDS011;10657;51.276;6.390;2024-01-15T09:29:23;7.13;;;4.25;;
20997;SDS011;10657;51.276;6.390;2024-01-15T09:31:53;8.13;;;3.72;;
20997;SDS011;10657;51.276;6.390;2024-01-15T09:34:20;6.88;;;3.08;;
20997;SDS011;10657;51.276;6.390;2024-01-15T09:36:48;5.60;;;2.85;;
20997;SDS011;10657;51.276;6.390;2024-01-15T09:39:17;5.78;;;3.00;;
20997;SDS011;10657;51.276;6.390;2024-01-15T09:41:45;6.25;;;3.15;;
20997;SDS011;10657;51.276;6.390;2024-01-15T09:44:24;5.68;;;2.63;;
20997;SDS011;10657;51.276;6.390;2024-01-15T09:46:53;5.93;;;2.85;;
20997;SDS011;10657;51.276;6.390;2024-01-15T09:49:21;6.10;;;2.80;;
20997;SDS011;10657;51.276;6.390;2024-01-15T09:51:48;6.95;;;2.35;;
20997;SDS011;10657;51.276;6.390;2024-01-15T09:54:28;5.15;;;2.60;;
20997;SDS011;10657;51.276;6.390;2024-01-15T09:56:55;5.53;;;2.40;;
20997;SDS011;10657;51.276;6.390;2024-01-15T09:59:22;4.88;;;2.42;;
20997;SDS011;10657;51.276;6.390;2024-01-15T10:01:50;5.45;;;2.50;;
20997;SDS011;10657;51.276;6.390;2024-01-15T10:04:21;4.70;;;2.30;;
20997;SDS011;10657;51.276;6.390;2024-01-15T10:06:50;4.50;;;2.15;;
20997;SDS011;10657;51.276;6.390;2024-01-15T10:09:31;4.72;;;2.22;;
20997;SDS011;10657;51.276;6.390;2024-01-15T10:11:58;4.85;;;2.30;;
20997;SDS011;10657;51.276;6.390;2024-01-15T10:14:27;3.90;;;1.83;;
20997;SDS011;10657;51.276;6.390;2024-01-15T10:16:53;5.18;;;1.88;;
20997;SDS011;10657;51.276;6.390;2024-01-15T10:19:22;4.38;;;1.95;;
20997;SDS011;10657;51.276;6.390;2024-01-15T10:21:49;5.07;;;2.17;;
20997;SDS011;10657;51.276;6.390;2024-01-15T10:24:16;4.78;;;1.90;;
20997;SDS011;10657;51.276;6.390;2024-01-15T10:26:43;6.68;;;2.30;;
20997;SDS011;10657;51.276;6.390;2024-01-15T10:29:11;4.07;;;1.80;;
20997;SDS011;10657;51.276;6.390;2024-01-15T10:31:40;4.45;;;1.80;;
20997;SDS011;10657;51.276;6.390;2024-01-15T10:34:11;3.30;;;1.50;;
20997;SDS011;10657;51.276;6.390;2024-01-15T10:36:39;4.70;;;1.42;;
20997;SDS011;10657;51.276;6.390;2024-01-15T10:39:07;5.28;;;1.40;;
20997;SDS011;10657;51.276;6.390;2024-01-15T10:41:34;4.88;;;1.40;;
20997;SDS011;10657;51.276;6.390;2024-01-15T10:44:01;3.92;;;1.10;;
20997;SDS011;10657;51.276;6.390;2024-01-15T10:46:31;4.50;;;1.30;;
20997;SDS011;10657;51.276;6.390;2024-01-15T10:49:00;3.28;;;1.00;;
20997;SDS011;10657;51.276;6.390;2024-01-15T10:51:26;3.38;;;0.85;;
20997;SDS011;10657;51.276;6.390;2024-01-15T10:53:56;4.05;;;0.90;;
20997;SDS011;10657;51.276;6.390;2024-01-15T10:56:23;8.15;;;1.70;;
20997;SDS011;10657;51.276;6.390;2024-01-15T10:58:54;6.97;;;2.15;;
20997;SDS011;10657;51.276;6.390;2024-01-15T11:01:26;7.15;;;1.88;;
20997;SDS011;10657;51.276;6.390;2024-01-15T11:03:56;5.07;;;1.30;;
20997;SDS011;10657;51.276;6.390;2024-01-15T11:06:25;8.55;;;3.25;;
20997;SDS011;10657;51.276;6.390;2024-01-15T11:08:55;6.50;;;1.60;;
20997;SDS011;10657;51.276;6.390;2024-01-15T11:11:23;7.60;;;1.83;;
20997;SDS011;10657;51.276;6.390;2024-01-15T11:13:51;4.32;;;1.50;;
20997;SDS011;10657;51.276;6.390;2024-01-15T11:16:18;4.50;;;1.20;;
20997;SDS011;10657;51.276;6.390;2024-01-15T11:21:28;4.03;;;1.42;;
20997;SDS011;10657;51.276;6.390;2024-01-15T11:23:59;5.22;;;1.50;;
20997;SDS011;10657;51.276;6.390;2024-01-15T11:26:31;4.95;;;1.63;;
20997;SDS011;10657;51.276;6.390;2024-01-15T11:28:59;4.78;;;1.83;;
20997;SDS011;10657;51.276;6.390;2024-01-15T11:31:29;5.07;;;1.58;;
20997;SDS011;10657;51.276;6.390;2024-01-15T11:34:17;4.20;;;1.83;;
20997;SDS011;10657;51.276;6.390;2024-01-15T11:41:55;5.07;;;1.75;;
20997;SDS011;10657;51.276;6.390;2024-01-15T11:44:27;8.93;;;2.45;;
20997;SDS011;10657;51.276;6.390;2024-01-15T11:46:58;5.63;;;2.20;;
20997;SDS011;10657;51.276;6.390;2024-01-15T11:49:41;6.55;;;2.88;;
20997;SDS011;10657;51.276;6.390;2024-01-15T11:52:22;6.85;;;2.90;;
20997;SDS011;10657;51.276;6.390;2024-01-15T11:55:35;6.22;;;2.85;;
20997;SDS011;10657;51.276;6.390;2024-01-15T12:00:13;7.22;;;3.22;;
20997;SDS011;10657;51.276;6.390;2024-01-15T12:02:41;9.50;;;3.40;;
20997;SDS011;10657;51.276;6.390;2024-01-15T12:05:10;8.73;;;4.00;;
20997;SDS011;10657;51.276;6.390;2024-01-15T12:07:46;9.70;;;4.47;;
20997;SDS011;10657;51.276;6.390;2024-01-15T12:10:18;9.20;;;3.90;;
20997;SDS011;10657;51.276;6.390;2024-01-15T12:12:54;7.45;;;4.07;;
20997;SDS011;10657;51.276;6.390;2024-01-15T12:15:24;10.00;;;3.88;;
20997;SDS011;10657;51.276;6.390;2024-01-15T12:17:52;10.20;;;5.13;;
20997;SDS011;10657;51.276;6.390;2024-01-15T12:20:27;9.15;;;4.72;;
20997;SDS011;10657;51.276;6.390;2024-01-15T12:23:00;9.05;;;4.80;;
20997;SDS011;10657;51.276;6.390;2024-01-15T12:25:33;11.10;;;4.50;;
20997;SDS011;10657;51.276;6.390;2024-01-15T12:28:01;14.30;;;4.80;;
20997;SDS011;10657;51.276;6.390;2024-01-15T12:30:28;9.77;;;4.38;;
20997;SDS011;10657;51.276;6.390;2024-01-15T12:32:57;9.60;;;4.00;;
20997;SDS011;10657;51.276;6.390;2024-01-15T12:35:24;7.40;;;4.00;;
20997;SDS011;10657;51.276;6.390;2024-01-15T12:37:53;9.98;;;4.43;;
20997;SDS011;10657;51.276;6.390;2024-01-15T12:40:21;8.60;;;3.28;;
20997;SDS011;10657;51.276;6.390;2024-01-15T12:42:49;8.40;;;3.08;;
20997;SDS011;10657;51.276;6.390;2024-01-15T12:45:21;6.70;;;2.92;;
20997;SDS011;10657;51.276;6.390;2024-01-15T12:47:48;8.48;;;2.70;;
20997;SDS011;10657;51.276;6.390;2024-01-15T12:50:16;7.35;;;3.00;;
20997;SDS011;10657;51.276;6.390;2024-01-15T12:52:46;8.63;;;3.47;;
20997;SDS011;10657;51.276;6.390;2024-01-15T12:55:13;6.00;;;2.63;;
20997;SDS011;10657;51.276;6.390;2024-01-15T12:57:40;6.65;;;2.45;;
20997;SDS011;10657;51.276;6.390;2024-01-15T13:00:07;6.90;;;2.90;;
20997;SDS011;10657;51.276;6.390;2024-01-15T13:02:39;7.38;;;2.85;;
20997;SDS011;10657;51.276;6.390;2024-01-15T13:05:10;6.78;;;2.33;;
20997;SDS011;10657;51.276;6.390;2024-01-15T13:07:40;8.35;;;2.70;;
20997;SDS011;10657;51.276;6.390;2024-01-15T13:10:07;6.18;;;2.03;;
20997;SDS011;10657;51.276;6.390;2024-01-15T13:12:40;6.85;;;2.28;;
20997;SDS011;10657;51.276;6.390;2024-01-15T13:15:10;4.22;;;1.60;;
20997;SDS011;10657;51.276;6.390;2024-01-15T13:17:40;3.53;;;1.20;;
20997;SDS011;10657;51.276;6.390;2024-01-15T13:20:08;3.50;;;1.38;;
20997;SDS011;10657;51.276;6.390;2024-01-15T13:22:36;2.95;;;1.00;;
20997;SDS011;10657;51.276;6.390;2024-01-15T13:25:05;3.53;;;1.27;;
20997;SDS011;10657;51.276;6.390;2024-01-15T13:27:33;2.58;;;0.90;;
20997;SDS011;10657;51.276;6.390;2024-01-15T13:30:05;2.92;;;1.00;;
20997;SDS011;10657;51.276;6.390;2024-01-15T13:32:36;3.17;;;0.93;;
20997;SDS011;10657;51.276;6.390;2024-01-15T13:35:03;3.38;;;1.13;;
20997;SDS011;10657;51.276;6.390;2024-01-15T13:37:36;2.83;;;0.90;;
20997;SDS011;10657;51.276;6.390;2024-01-15T13:40:04;2.45;;;0.90;;
20997;SDS011;10657;51.276;6.390;2024-01-15T13:42:33;1.70;;;0.88;;
20997;SDS011;10657;51.276;6.390;2024-01-15T13:45:00;3.78;;;1.23;;
20997;SDS011;10657;51.276;6.390;2024-01-15T13:47:27;5.43;;;1.70;;
20997;SDS011;10657;51.276;6.390;2024-01-15T13:49:53;5.55;;;1.80;;
20997;SDS011;10657;51.276;6.390;2024-01-15T13:52:23;4.20;;;1.60;;
20997;SDS011;10657;51.276;6.390;2024-01-15T13:54:54;3.67;;;1.20;;
20997;SDS011;10657;51.276;6.390;2024-01-15T13:57:21;2.67;;;1.17;;
20997;SDS011;10657;51.276;6.390;2024-01-15T13:59:49;3.92;;;1.27;;
20997;SDS011;10657;51.276;6.390;2024-01-15T14:02:18;5.13;;;2.22;;
20997;SDS011;10657;51.276;6.390;2024-01-15T14:04:49;4.07;;;1.20;;
20997;SDS011;10657;51.276;6.390;2024-01-15T14:07:21;3.40;;;1.30;;
20997;SDS011;10657;51.276;6.390;2024-01-15T14:09:48;3.05;;;1.30;;
20997;SDS011;10657;51.276;6.390;2024-01-15T14:12:15;3.13;;;1.45;;
20997;SDS011;10657;51.276;6.390;2024-01-15T14:14:41;3.08;;;1.20;;
20997;SDS011;10657;51.276;6.390;2024-01-15T14:17:08;4.25;;;1.60;;
20997;SDS011;10657;51.276;6.390;2024-01-15T14:19:35;5.07;;;1.77;;
20997;SDS011;10657;51.276;6.390;2024-01-15T14:22:03;4.95;;;1.50;;
20997;SDS011;10657;51.276;6.390;2024-01-15T14:24:30;4.38;;;1.30;;
20997;SDS011;10657;51.276;6.390;2024-01-15T14:26:57;3.25;;;1.33;;
20997;SDS011;10657;51.276;6.390;2024-01-15T14:29:24;2.47;;;0.90;;
20997;SDS011;10657;51.276;6.390;2024-01-15T14:31:52;2.95;;;1.00;;
20997;SDS011;10657;51.276;6.390;2024-01-15T14:34:20;4.85;;;1.20;;
20997;SDS011;10657;51.276;6.390;2024-01-15T14:36:50;2.78;;;1.10;;
20997;SDS011;10657;51.276;6.390;2024-01-15T14:39:21;4.15;;;1.00;;
20997;SDS011;10657;51.276;6.390;2024-01-15T14:41:48;4.43;;;1.10;;
20997;SDS011;10657;51.276;6.390;2024-01-15T14:44:15;2.10;;;1.00;;
20997;SDS011;10657;51.276;6.390;2024-01-15T14:46:42;2.25;;;0.82;;
20997;SDS011;10657;51.276;6.390;2024-01-15T14:49:12;2.72;;;1.10;;
20997;SDS011;10657;51.276;6.390;2024-01-15T14:51:39;2.40;;;1.00;;
20997;SDS011;10657;51.276;6.390;2024-01-15T14:54:06;3.08;;;1.20;;